Nearby METAR Reports

 

KHQM - Hoquiam,WA, USA
Updated: Sun, 22-Apr-2018 12:53am PDT
Clear
Clear
 Wind from NNW
Wind: NNW 8 mph , 13 km/h
Temperature: 45°F , 7°C
Wind Chill: 41°F , 5°C
Dew Point: 37°F , 3°C
Humidity: 76%
Barometer: 30.41 inHg , 1029.8 hPa
Clouds: Clear
Visibility: 9 miles , 14 km
2018/04/22 07:53 KHQM 220753Z AUTO 33007KT 9SM CLR 07/03 A3041 RMK AO2 SLP301 T00670033 401170067